Time;durP1;ratioP1;P1;durP2;ratioP2;P2;SDS_P1;SDS_P2;PMS_P1;PMS_P2;Temp;Humidity;BMP_temperature;BMP_pressure;BME280_temperature;BME280_humidity;BME280_pressure;Samples;Min_cycle;Max_cycle;Signal;HPM_P1;HPM_P2
2022/03/19 00:01:32;;;;;;;23.20;8.90;;;2.30;91.90;;;;;;5067985;28;20043;-78
2022/03/19 00:03:57;;;;;;;24.42;8.57;;;2.20;92.00;;;;;;5063913;28;20028;-78
2022/03/19 00:06:23;;;;;;;33.92;9.20;;;2.20;92.10;;;;;;5053312;28;20114;-78
2022/03/19 00:08:49;;;;;;;25.73;8.55;;;2.20;92.20;;;;;;5050731;28;20020;-78
2022/03/19 00:11:14;;;;;;;27.13;9.18;;;2.20;92.20;;;;;;5068413;28;20467;-77
2022/03/19 00:13:40;;;;;;;28.02;9.05;;;2.10;92.20;;;;;;5076687;28;20031;-77
2022/03/19 00:16:06;;;;;;;29.25;9.35;;;2.00;92.10;;;;;;5066004;28;20039;-77
2022/03/19 00:18:31;;;;;;;25.05;9.65;;;2.00;92.40;;;;;;5068417;28;20555;-77
2022/03/19 00:20:57;;;;;;;22.60;9.05;;;2.00;92.50;;;;;;5052977;28;20017;-77
2022/03/19 00:23:22;;;;;;;32.55;10.27;;;1.90;92.40;;;;;;5068589;28;20338;-77
2022/03/19 00:25:48;;;;;;;28.33;10.95;;;1.90;92.50;;;;;;5067612;28;20033;-77
2022/03/19 00:28:18;;;;;;;27.85;9.88;;;1.90;92.60;;;;;;5047356;28;20394;-78
2022/03/19 00:30:45;;;;;;;25.77;10.30;;;1.90;92.60;;;;;;5065585;28;20021;-78
2022/03/19 00:33:11;;;;;;;31.88;10.30;;;1.80;92.60;;;;;;5066302;28;20758;-78
2022/03/19 00:35:37;;;;;;;29.27;11.02;;;1.80;92.80;;;;;;5050095;28;20052;-78
2022/03/19 00:38:04;;;;;;;36.40;11.55;;;1.70;92.80;;;;;;5073689;28;20486;-78
2022/03/19 00:40:30;;;;;;;27.13;10.32;;;1.70;92.80;;;;;;5068352;28;20023;-78
2022/03/19 00:42:55;;;;;;;28.55;10.52;;;1.70;92.90;;;;;;5064313;28;20028;-78
2022/03/19 00:45:21;;;;;;;34.20;10.70;;;1.60;92.90;;;;;;5048451;28;20105;-78
2022/03/19 00:47:47;;;;;;;28.67;9.88;;;1.60;92.90;;;;;;5077685;28;20032;-78
2022/03/19 00:50:13;;;;;;;23.88;10.73;;;1.50;93.00;;;;;;5050966;28;20075;-78
2022/03/19 00:52:39;;;;;;;33.28;11.00;;;1.40;92.90;;;;;;5063306;28;20036;-78
2022/03/19 00:55:05;;;;;;;26.63;10.30;;;1.30;93.00;;;;;;5072206;28;20032;-78
2022/03/19 00:57:45;;;;;;;30.42;10.45;;;1.30;93.00;;;;;;5075219;28;20039;-78
2022/03/19 01:00:14;;;;;;;33.75;10.13;;;1.20;93.20;;;;;;5062118;28;20033;-79
2022/03/19 01:02:44;;;;;;;23.00;10.18;;;1.30;93.30;;;;;;5040237;28;20492;-79
2022/03/19 01:05:11;;;;;;;31.02;10.05;;;1.30;93.20;;;;;;5046882;28;20017;-79
2022/03/19 01:07:48;;;;;;;32.83;9.98;;;1.20;93.20;;;;;;5054950;28;20040;-79
2022/03/19 01:10:20;;;;;;;30.35;11.25;;;1.20;93.40;;;;;;5076356;28;20028;-79
2022/03/19 01:12:47;;;;;;;25.38;9.43;;;1.20;93.30;;;;;;5075894;28;20094;-79
2022/03/19 01:15:15;;;;;;;24.30;9.60;;;1.10;93.40;;;;;;5046397;28;20032;-79
2022/03/19 01:17:41;;;;;;;26.42;9.25;;;1.10;93.40;;;;;;5056395;28;20024;-79
2022/03/19 01:20:07;;;;;;;28.17;10.13;;;1.10;93.40;;;;;;5052330;28;20071;-79
2022/03/19 01:22:33;;;;;;;39.22;9.63;;;1.00;93.40;;;;;;5072616;28;20032;-79
2022/03/19 01:25:03;;;;;;;29.73;10.18;;;0.90;93.30;;;;;;5071236;28;20028;-79
2022/03/19 01:27:30;;;;;;;37.05;10.10;;;0.90;93.40;;;;;;5048396;28;20443;-79
2022/03/19 01:29:55;;;;;;;30.55;9.68;;;0.90;93.60;;;;;;5073113;28;20504;-79
2022/03/19 01:32:21;;;;;;;25.33;9.23;;;1.00;93.60;;;;;;5052041;28;20035;-79
2022/03/19 01:34:46;;;;;;;36.35;9.93;;;1.00;93.60;;;;;;5044066;28;20145;-79
2022/03/19 01:37:12;;;;;;;30.30;10.95;;;1.00;93.70;;;;;;5076224;28;20032;-79
2022/03/19 01:39:37;;;;;;;31.35;10.57;;;1.10;93.60;;;;;;5074014;28;20357;-79
2022/03/19 01:42:04;;;;;;;31.48;9.20;;;1.10;93.70;;;;;;5067119;28;20051;-79
2022/03/19 01:44:30;;;;;;;30.38;9.85;;;1.10;93.60;;;;;;5052619;28;20016;-79
2022/03/19 01:47:04;;;;;;;30.00;10.75;;;1.10;93.60;;;;;;5056174;28;20039;-79
2022/03/19 01:49:30;;;;;;;30.33;9.52;;;1.10;93.60;;;;;;5041973;28;20032;-79
2022/03/19 01:51:57;;;;;;;37.38;10.27;;;1.20;93.70;;;;;;5066957;28;20036;-78
2022/03/19 01:54:29;;;;;;;33.25;10.38;;;1.20;93.70;;;;;;5049542;28;20054;-78
2022/03/19 01:56:56;;;;;;;31.58;10.50;;;1.30;93.80;;;;;;5081092;28;20131;-79
2022/03/19 01:59:24;;;;;;;32.17;10.68;;;1.30;93.50;;;;;;5055758;28;20031;-79
2022/03/19 02:01:51;;;;;;;36.55;9.32;;;1.30;93.40;;;;;;5081567;28;20024;-79
2022/03/19 02:04:18;;;;;;;28.75;9.93;;;1.20;93.40;;;;;;5062347;28;20034;-79
2022/03/19 02:06:44;;;;;;;32.40;9.32;;;1.20;93.40;;;;;;5075197;28;20025;-79
2022/03/19 02:09:10;;;;;;;29.92;9.23;;;1.10;93.20;;;;;;5043112;28;20032;-79
2022/03/19 02:11:36;;;;;;;34.60;9.98;;;1.10;93.20;;;;;;5048210;28;20036;-79
2022/03/19 02:14:03;;;;;;;29.58;10.40;;;1.10;93.30;;;;;;5068670;28;20039;-79
2022/03/19 02:16:29;;;;;;;28.75;9.25;;;1.00;93.10;;;;;;5065478;28;20025;-79
2022/03/19 02:18:57;;;;;;;30.65;8.65;;;1.00;93.20;;;;;;5081664;28;20378;-79
2022/03/19 02:21:22;;;;;;;30.98;9.73;;;1.00;93.20;;;;;;5091300;28;20027;-79
2022/03/19 02:26:46;;;;;;;26.92;8.77;;;0.80;93.10;;;;;;5070542;28;20074;-79
2022/03/19 02:29:12;;;;;;;26.50;9.45;;;0.80;93.10;;;;;;5064786;28;20052;-78
2022/03/19 02:31:44;;;;;;;32.38;9.32;;;0.80;93.20;;;;;;5045939;28;20074;-78
2022/03/19 02:34:10;;;;;;;30.08;8.85;;;0.70;93.20;;;;;;5064059;28;20044;-78
2022/03/19 02:36:36;;;;;;;31.15;9.82;;;0.70;93.20;;;;;;5056890;28;20435;-79
2022/03/19 02:39:12;;;;;;;31.13;8.88;;;0.60;93.20;;;;;;5067202;28;20441;-79
2022/03/19 02:41:42;;;;;;;36.25;9.43;;;0.60;93.20;;;;;;5068525;28;20455;-79
2022/03/19 02:44:09;;;;;;;23.13;9.15;;;0.60;93.30;;;;;;5073958;28;20021;-79
2022/03/19 02:46:49;;;;;;;22.60;8.15;;;0.60;93.20;;;;;;5067653;28;20119;-79
2022/03/19 02:49:16;;;;;;;28.20;8.30;;;0.50;93.30;;;;;;5060464;28;20130;-78
2022/03/19 02:51:43;;;;;;;29.50;8.88;;;0.60;93.40;;;;;;5037113;28;20384;-78
2022/03/19 02:54:11;;;;;;;28.92;8.63;;;0.50;93.20;;;;;;5061827;28;20028;-79
2022/03/19 02:56:38;;;;;;;25.38;7.97;;;0.50;93.30;;;;;;5046471;28;20028;-79
2022/03/19 02:59:10;;;;;;;32.80;8.32;;;0.60;93.50;;;;;;5071336;28;20097;-79
2022/03/19 03:01:37;;;;;;;25.58;8.18;;;0.60;93.50;;;;;;5050281;28;20028;-79
2022/03/19 03:04:03;;;;;;;23.48;8.23;;;0.60;93.30;;;;;;5080446;28;20059;-79
2022/03/19 03:06:34;;;;;;;29.48;8.68;;;0.60;93.50;;;;;;5066088;28;20130;-79
2022/03/19 03:08:59;;;;;;;28.50;8.55;;;0.60;93.40;;;;;;5078834;28;20082;-79
2022/03/19 03:11:25;;;;;;;36.70;9.77;;;0.60;93.50;;;;;;5076277;28;20256;-78
2022/03/19 03:13:50;;;;;;;35.10;10.15;;;0.60;93.50;;;;;;5055102;28;20025;-78
2022/03/19 03:16:16;;;;;;;29.48;9.85;;;0.50;93.30;;;;;;5046647;28;20109;-78
2022/03/19 03:18:42;;;;;;;29.70;9.70;;;0.50;93.50;;;;;;5064260;28;20024;-78
2022/03/19 03:21:07;;;;;;;24.38;9.25;;;0.50;93.50;;;;;;5060715;28;20038;-78
2022/03/19 03:23:33;;;;;;;28.65;9.25;;;0.50;93.50;;;;;;5057451;28;20111;-78
2022/03/19 03:25:59;;;;;;;39.03;10.30;;;0.40;93.50;;;;;;5045471;28;20052;-78
2022/03/19 03:28:25;;;;;;;30.75;10.02;;;0.30;93.50;;;;;;5049777;28;20488;-78
2022/03/19 03:30:50;;;;;;;27.00;11.30;;;0.30;93.50;;;;;;5061248;28;20055;-78
2022/03/19 03:33:16;;;;;;;35.75;10.82;;;0.20;93.60;;;;;;5051720;28;20032;-78
2022/03/19 03:35:41;;;;;;;29.15;10.93;;;0.30;93.70;;;;;;5046194;28;20036;-78
2022/03/19 03:38:07;;;;;;;30.08;10.55;;;0.30;93.80;;;;;;5061664;28;20035;-78
2022/03/19 03:40:32;;;;;;;38.05;11.27;;;0.30;93.70;;;;;;5050645;28;20490;-78
2022/03/19 03:42:58;;;;;;;35.13;11.13;;;0.20;93.70;;;;;;5055190;28;20020;-78
2022/03/19 03:45:27;;;;;;;42.03;11.63;;;0.20;93.80;;;;;;5064094;28;20033;-78
2022/03/19 03:47:53;;;;;;;28.73;11.15;;;0.10;93.70;;;;;;5073202;28;20116;-78
2022/03/19 03:50:20;;;;;;;31.63;11.02;;;0.10;93.70;;;;;;5042925;28;20056;-78
2022/03/19 03:52:45;;;;;;;27.25;9.90;;;0.10;93.90;;;;;;5049653;28;20328;-78
2022/03/19 03:55:11;;;;;;;30.77;10.05;;;0.10;93.80;;;;;;5065846;28;20036;-78
2022/03/19 03:57:37;;;;;;;27.13;9.80;;;0.00;93.90;;;;;;5073638;28;20032;-78
2022/03/19 04:00:04;;;;;;;28.52;10.43;;;0.00;93.80;;;;;;5047765;28;20383;-78
2022/03/19 04:02:29;;;;;;;28.60;10.00;;;0.00;93.80;;;;;;5069754;28;20024;-79
2022/03/19 04:04:55;;;;;;;39.45;10.48;;;0.00;93.90;;;;;;5068571;28;20108;-79
2022/03/19 04:07:21;;;;;;;36.15;9.73;;;-3276.70;93.90;;;;;;5065664;28;20040;-79
2022/03/19 04:09:47;;;;;;;37.00;9.73;;;-3276.70;94.00;;;;;;5077728;28;20031;-79
2022/03/19 04:12:14;;;;;;;29.88;10.07;;;-3276.70;94.00;;;;;;5056870;28;20032;-79
2022/03/19 04:14:40;;;;;;;36.25;10.30;;;0.00;94.10;;;;;;5051259;28;20027;-78
2022/03/19 04:17:06;;;;;;;37.00;10.27;;;0.00;94.00;;;;;;5049568;28;20127;-78
2022/03/19 04:19:32;;;;;;;34.83;10.95;;;0.00;94.00;;;;;;5080248;28;20032;-78
2022/03/19 04:21:57;;;;;;;30.27;9.80;;;0.00;94.20;;;;;;5068313;28;20029;-78
2022/03/19 04:24:23;;;;;;;31.17;10.30;;;0.00;94.20;;;;;;5062880;28;20386;-79
2022/03/19 04:26:48;;;;;;;26.35;10.93;;;0.00;94.10;;;;;;5050219;28;20042;-79
2022/03/19 04:29:14;;;;;;;40.85;11.70;;;-3276.70;94.10;;;;;;5068287;28;20387;-79
2022/03/19 04:31:39;;;;;;;36.00;11.25;;;-3276.70;94.10;;;;;;5069064;28;20111;-79
2022/03/19 04:34:05;;;;;;;32.58;10.90;;;-3276.70;94.10;;;;;;5050755;28;20397;-78
2022/03/19 04:36:30;;;;;;;36.78;10.50;;;-3276.60;94.10;;;;;;5047257;28;20077;-78
2022/03/19 04:38:57;;;;;;;47.53;11.43;;;-3276.70;94.30;;;;;;5051072;28;20025;-76
2022/03/19 04:41:23;;;;;;;43.03;11.20;;;-3276.70;94.30;;;;;;5052971;28;20054;-76
2022/03/19 04:43:49;;;;;;;36.15;11.25;;;-3276.70;94.30;;;;;;5076945;28;20099;-77
2022/03/19 04:46:15;;;;;;;32.72;12.05;;;0.00;94.50;;;;;;5047630;28;20025;-77
2022/03/19 04:48:42;;;;;;;36.33;12.57;;;-3276.70;94.30;;;;;;5080077;28;20036;-77
2022/03/19 04:51:08;;;;;;;33.97;12.18;;;-3276.60;94.20;;;;;;5058866;28;20050;-77
2022/03/19 04:53:34;;;;;;;36.08;12.65;;;-3276.60;94.40;;;;;;5081250;28;20102;-76
2022/03/19 04:55:59;;;;;;;28.95;12.20;;;-3276.70;94.50;;;;;;5045925;28;20048;-77
2022/03/19 04:58:25;;;;;;;36.63;12.57;;;-3276.60;94.50;;;;;;5047466;28;20032;-77
2022/03/19 05:00:51;;;;;;;37.22;12.88;;;-3276.60;94.50;;;;;;5051621;28;20499;-77
2022/03/19 05:03:16;;;;;;;36.47;14.20;;;-3276.60;94.50;;;;;;5068008;28;20028;-77
2022/03/19 05:05:42;;;;;;;36.70;12.95;;;-3276.60;94.60;;;;;;5069118;28;20376;-77
2022/03/19 05:08:07;;;;;;;36.90;14.15;;;-3276.70;94.60;;;;;;5062501;28;20032;-77
2022/03/19 05:13:18;;;;;;;40.15;13.65;;;-3276.70;94.70;;;;;;5071020;28;20032;-76
2022/03/19 05:15:43;;;;;;;46.92;15.15;;;-3276.70;94.70;;;;;;5049879;28;20025;-78
2022/03/19 05:18:09;;;;;;;44.50;13.80;;;-3276.60;94.60;;;;;;5055098;28;20462;-79
2022/03/19 05:20:35;;;;;;;40.30;15.23;;;-3276.60;94.70;;;;;;5067806;28;20047;-79
2022/03/19 05:23:01;;;;;;;44.80;15.57;;;-3276.50;94.60;;;;;;5066286;28;20101;-79
2022/03/19 05:25:27;;;;;;;39.45;14.68;;;-3276.60;94.70;;;;;;5070404;28;20552;-79
2022/03/19 05:27:52;;;;;;;43.10;16.50;;;-3276.60;94.80;;;;;;5060211;28;20021;-79
2022/03/19 05:30:18;;;;;;;43.72;16.48;;;-3276.60;94.80;;;;;;5071226;28;20060;-79
2022/03/19 05:32:43;;;;;;;41.15;17.40;;;-3276.60;94.80;;;;;;5077881;28;20082;-79
2022/03/19 05:35:09;;;;;;;51.78;18.33;;;-3276.60;94.80;;;;;;5071467;28;20577;-79
2022/03/19 05:37:35;;;;;;;53.25;18.65;;;-3276.60;94.80;;;;;;5054320;28;20028;-79
2022/03/19 05:40:04;;;;;;;44.45;17.92;;;-3276.50;94.70;;;;;;5077730;28;20103;-77
2022/03/19 05:42:30;;;;;;;48.95;18.92;;;-3276.50;94.80;;;;;;5084150;28;20032;-77
2022/03/19 05:44:55;;;;;;;61.42;20.50;;;-3276.60;94.80;;;;;;5065636;28;21227;-77
2022/03/19 05:47:21;;;;;;;58.47;21.02;;;-3276.60;94.90;;;;;;5071275;28;20028;-78
2022/03/19 05:49:46;;;;;;;78.35;23.92;;;-3276.60;94.90;;;;;;5053639;28;20032;-79
2022/03/19 05:52:12;;;;;;;76.22;24.05;;;-3276.70;95.00;;;;;;5056660;28;20044;-79
2022/03/19 05:54:37;;;;;;;71.25;24.77;;;-3276.70;94.90;;;;;;5077913;28;20028;-79
2022/03/19 05:57:03;;;;;;;58.55;22.63;;;0.00;94.90;;;;;;5064749;28;20029;-79
2022/03/19 05:59:29;;;;;;;64.90;23.52;;;0.00;94.80;;;;;;5076699;28;20024;-78
2022/03/19 06:01:54;;;;;;;67.05;19.95;;;0.00;94.80;;;;;;5070592;28;20050;-79
2022/03/19 06:04:20;;;;;;;54.60;19.52;;;-3276.70;94.80;;;;;;5073883;28;20025;-79
2022/03/19 06:06:45;;;;;;;49.70;18.23;;;0.00;94.90;;;;;;5054901;28;20028;-79
2022/03/19 06:09:11;;;;;;;55.17;16.50;;;-3276.70;94.90;;;;;;5074549;28;20028;-79
2022/03/19 06:11:38;;;;;;;43.22;15.43;;;0.00;94.90;;;;;;5070419;28;20040;-79
2022/03/19 06:14:04;;;;;;;57.88;16.08;;;0.00;94.90;;;;;;5073621;28;20468;-79
2022/03/19 06:16:29;;;;;;;49.15;15.43;;;0.00;95.00;;;;;;5074650;28;20031;-80
2022/03/19 06:18:55;;;;;;;47.58;13.68;;;0.00;95.10;;;;;;5048450;28;20032;-79
2022/03/19 06:21:23;;;;;;;40.80;14.35;;;0.00;95.10;;;;;;5058562;28;20020;-79
2022/03/19 06:23:51;;;;;;;54.42;13.82;;;0.10;95.10;;;;;;5070356;28;20017;-79
2022/03/19 06:26:20;;;;;;;37.92;11.65;;;0.20;95.10;;;;;;5071308;28;20024;-79
2022/03/19 06:28:46;;;;;;;42.97;11.95;;;0.30;95.10;;;;;;5048331;28;20566;-77
2022/03/19 06:31:12;;;;;;;39.10;12.90;;;0.30;95.10;;;;;;5052954;28;20039;-77
2022/03/19 06:33:41;;;;;;;43.40;12.48;;;0.40;95.20;;;;;;5066627;28;20668;-79
2022/03/19 06:38:52;;;;;;;41.22;11.52;;;0.60;95.20;;;;;;5074310;28;20144;-77
2022/03/19 06:41:17;;;;;;;35.90;10.02;;;0.80;95.20;;;;;;5053190;28;20059;-77
2022/03/19 06:43:43;;;;;;;41.45;10.88;;;1.00;95.30;;;;;;5067559;28;20107;-77
2022/03/19 06:46:09;;;;;;;37.55;9.75;;;1.10;95.20;;;;;;5055974;28;20025;-77
2022/03/19 06:48:35;;;;;;;36.05;10.35;;;1.30;95.20;;;;;;5069382;28;20471;-77
2022/03/19 06:51:01;;;;;;;28.77;9.30;;;1.40;95.20;;;;;;5062011;28;20023;-77
2022/03/19 06:53:26;;;;;;;36.20;8.80;;;1.80;95.40;;;;;;5064441;28;20112;-77
2022/03/19 06:55:52;;;;;;;28.58;8.07;;;2.00;95.20;;;;;;5064865;28;20083;-77
2022/03/19 06:58:20;;;;;;;29.85;8.18;;;2.40;95.10;;;;;;5059092;28;20062;-77
2022/03/19 07:00:46;;;;;;;36.65;9.07;;;2.60;94.70;;;;;;5057033;28;20103;-78
2022/03/19 07:03:12;;;;;;;34.75;8.02;;;3.00;94.70;;;;;;5066947;28;20457;-78
2022/03/19 07:05:38;;;;;;;26.05;7.82;;;3.30;94.30;;;;;;5048143;28;20021;-79
2022/03/19 07:08:08;;;;;;;19.58;6.43;;;3.50;93.70;;;;;;5049524;28;20028;-79
2022/03/19 07:10:34;;;;;;;27.63;6.47;;;3.70;92.90;;;;;;5062043;28;20465;-79
2022/03/19 07:13:00;;;;;;;18.17;5.03;;;4.00;92.30;;;;;;5073158;28;20025;-78
2022/03/19 07:15:28;;;;;;;22.65;5.05;;;4.10;91.40;;;;;;5073211;28;20096;-79
2022/03/19 07:17:54;;;;;;;18.95;4.65;;;4.10;90.00;;;;;;5049218;28;20029;-79
2022/03/19 07:20:19;;;;;;;18.80;4.40;;;4.20;89.00;;;;;;5053002;28;20111;-79
2022/03/19 07:23:00;;;;;;;16.90;4.18;;;4.30;88.10;;;;;;5047963;28;20124;-78
2022/03/19 07:25:29;;;;;;;21.23;4.10;;;4.40;87.40;;;;;;5065489;28;20024;-78
2022/03/19 07:27:57;;;;;;;18.10;4.00;;;4.50;86.80;;;;;;5049772;28;20120;-78
2022/03/19 07:30:23;;;;;;;17.45;4.07;;;4.60;86.50;;;;;;5062984;28;20040;-78
2022/03/19 07:32:49;;;;;;;18.38;3.10;;;4.60;86.50;;;;;;5058985;28;20098;-80
2022/03/19 07:35:14;;;;;;;11.65;3.28;;;4.60;86.20;;;;;;5058681;28;20048;-78
2022/03/19 07:37:41;;;;;;;13.20;3.40;;;4.90;86.10;;;;;;5088185;28;20031;-79
2022/03/19 07:40:09;;;;;;;11.80;3.70;;;4.90;85.20;;;;;;5092590;28;20572;-79
2022/03/19 07:42:35;;;;;;;15.43;3.08;;;5.00;84.90;;;;;;5089916;28;20081;-78
2022/03/19 07:45:02;;;;;;;10.77;2.83;;;5.10;84.50;;;;;;5061735;28;20085;-79
2022/03/19 07:47:29;;;;;;;9.52;2.38;;;5.10;83.90;;;;;;5060783;28;20028;-79
2022/03/19 07:49:55;;;;;;;16.92;3.35;;;5.10;83.50;;;;;;5049853;28;20048;-78
2022/03/19 07:52:21;;;;;;;10.30;2.70;;;5.20;83.40;;;;;;5086373;28;20028;-78
2022/03/19 07:54:47;;;;;;;12.13;2.45;;;5.30;83.10;;;;;;5058826;28;20295;-78
2022/03/19 07:57:13;;;;;;;8.50;2.65;;;5.40;82.80;;;;;;5054021;28;20131;-78
2022/03/19 07:59:39;;;;;;;12.65;2.88;;;5.50;82.60;;;;;;5093117;28;20019;-78
2022/03/19 08:02:05;;;;;;;11.88;2.53;;;5.60;82.70;;;;;;5092878;28;20031;-79
2022/03/19 08:04:31;;;;;;;9.65;2.78;;;5.60;82.20;;;;;;5073856;28;20107;-78
2022/03/19 08:06:56;;;;;;;8.35;2.70;;;5.70;81.70;;;;;;5071830;28;20629;-79
2022/03/19 08:09:23;;;;;;;14.25;2.70;;;5.90;81.70;;;;;;5060340;28;20115;-79
2022/03/19 08:11:50;;;;;;;10.40;2.65;;;6.10;80.70;;;;;;5051188;28;20040;-79
2022/03/19 08:14:17;;;;;;;11.25;2.53;;;6.10;79.90;;;;;;5072354;28;20048;-79
2022/03/19 08:16:43;;;;;;;10.15;2.85;;;6.40;79.70;;;;;;5041560;28;20025;-78
2022/03/19 08:19:12;;;;;;;7.15;2.47;;;6.50;79.80;;;;;;5038778;28;20016;-78
2022/03/19 08:21:39;;;;;;;9.82;2.40;;;6.60;78.90;;;;;;5062292;28;20093;-78
2022/03/19 08:24:06;;;;;;;13.77;3.00;;;7.00;79.10;;;;;;5071142;28;20027;-80
2022/03/19 08:26:31;;;;;;;12.20;2.90;;;7.40;78.60;;;;;;5069758;28;20029;-79
2022/03/19 08:28:57;;;;;;;11.55;3.03;;;7.40;76.40;;;;;;5071926;28;20408;-80
2022/03/19 08:31:23;;;;;;;12.02;3.08;;;7.60;76.20;;;;;;5069128;28;20020;-80
2022/03/19 08:33:48;;;;;;;8.52;2.35;;;7.80;75.90;;;;;;5079690;28;20115;-79
2022/03/19 08:36:14;;;;;;;10.00;2.58;;;8.10;74.70;;;;;;5052842;28;20024;-79
2022/03/19 08:41:24;;;;;;;7.20;2.47;;;8.50;74.20;;;;;;5071319;28;20031;-79
2022/03/19 08:43:49;;;;;;;10.18;2.33;;;8.60;72.40;;;;;;5072570;28;20380;-79
2022/03/19 08:46:15;;;;;;;8.90;2.58;;;8.80;72.60;;;;;;5074306;28;20032;-79
2022/03/19 08:48:41;;;;;;;6.68;2.28;;;8.80;72.30;;;;;;5072511;28;20382;-79
2022/03/19 08:53:50;;;;;;;7.18;2.10;;;9.10;71.30;;;;;;5069345;28;20114;-80
2022/03/19 08:56:17;;;;;;;13.68;2.80;;;9.70;69.70;;;;;;5050737;28;20031;-79
2022/03/19 08:58:43;;;;;;;8.48;2.97;;;9.60;68.50;;;;;;5069064;28;20024;-79
2022/03/19 09:01:08;;;;;;;11.55;2.53;;;9.80;69.30;;;;;;5054740;28;20380;-79
2022/03/19 09:03:34;;;;;;;11.73;2.22;;;10.20;68.20;;;;;;5075893;28;20455;-78
2022/03/19 09:06:00;;;;;;;10.85;2.08;;;10.10;67.20;;;;;;5071012;28;20028;-79
2022/03/19 09:08:26;;;;;;;8.70;2.50;;;10.10;66.20;;;;;;5062979;28;20043;-79
2022/03/19 09:10:52;;;;;;;8.82;2.33;;;10.10;66.60;;;;;;5086455;28;20036;-79
2022/03/19 09:13:18;;;;;;;10.70;2.85;;;9.80;66.00;;;;;;5062486;28;20048;-79
2022/03/19 09:15:44;;;;;;;15.48;2.40;;;10.10;66.40;;;;;;5081899;28;20025;-79
2022/03/19 09:18:10;;;;;;;9.40;1.85;;;9.80;65.20;;;;;;5067420;28;20035;-79
2022/03/19 09:20:35;;;;;;;9.57;2.03;;;10.50;66.10;;;;;;5074183;28;20035;-79
2022/03/19 09:23:03;;;;;;;7.57;2.40;;;10.30;65.20;;;;;;5075128;28;20032;-80
2022/03/19 09:25:29;;;;;;;10.05;2.35;;;10.10;64.30;;;;;;5062397;28;20107;-79
2022/03/19 09:27:54;;;;;;;7.03;2.15;;;10.40;64.60;;;;;;5074319;28;20079;-80
2022/03/19 09:30:20;;;;;;;10.65;2.05;;;10.60;62.50;;;;;;5075344;28;20025;-80
2022/03/19 09:32:45;;;;;;;10.40;2.20;;;10.50;62.40;;;;;;5069680;28;20028;-79
2022/03/19 09:35:11;;;;;;;6.25;1.90;;;10.70;62.60;;;;;;5056762;28;20045;-79
2022/03/19 09:37:36;;;;;;;9.48;2.22;;;11.10;62.40;;;;;;5053462;28;20040;-79
2022/03/19 09:40:03;;;;;;;8.25;2.42;;;11.00;61.80;;;;;;5051237;28;20549;-79
2022/03/19 09:42:28;;;;;;;8.23;2.20;;;10.80;61.40;;;;;;5069736;28;20419;-79
2022/03/19 09:44:54;;;;;;;7.47;1.95;;;10.80;62.80;;;;;;5071021;28;20037;-80
2022/03/19 09:47:20;;;;;;;7.85;1.73;;;10.30;60.60;;;;;;5066156;28;20447;-80
2022/03/19 09:49:45;;;;;;;8.40;2.08;;;10.60;61.50;;;;;;5077017;28;20036;-80
2022/03/19 09:52:12;;;;;;;7.03;2.13;;;11.00;60.70;;;;;;5073818;28;20024;-80
2022/03/19 09:54:38;;;;;;;6.03;2.05;;;11.20;60.30;;;;;;5049142;28;20052;-80
2022/03/19 09:57:05;;;;;;;8.23;1.65;;;11.30;59.20;;;;;;5070092;28;20131;-78
2022/03/19 09:59:31;;;;;;;8.48;1.85;;;11.20;58.90;;;;;;5071873;28;20025;-79
2022/03/19 10:01:56;;;;;;;7.53;2.00;;;11.50;60.80;;;;;;5070413;28;20030;-79
2022/03/19 10:04:23;;;;;;;8.40;1.90;;;11.60;59.80;;;;;;5077245;28;20033;-78
2022/03/19 10:09:47;;;;;;;6.30;1.52;;;11.50;58.50;;;;;;5063461;28;20123;-79
2022/03/19 10:12:20;;;;;;;8.98;1.90;;;11.60;59.40;;;;;;5054151;28;20526;-79
2022/03/19 10:14:47;;;;;;;10.43;2.08;;;11.80;57.90;;;;;;5067777;28;20035;-78
2022/03/19 10:17:34;;;;;;;13.63;2.47;;;12.40;58.90;;;;;;5064531;28;20060;-79
2022/03/19 10:20:11;;;;;;;5.63;2.05;;;12.20;58.60;;;;;;5043025;28;20495;-79
2022/03/19 10:22:44;;;;;;;8.88;1.80;;;12.10;58.60;;;;;;5065798;28;20032;-79
2022/03/19 10:25:12;;;;;;;9.18;1.95;;;11.60;58.60;;;;;;5061143;28;20060;-78
2022/03/19 10:27:40;;;;;;;6.53;1.50;;;11.90;58.00;;;;;;5080349;28;20504;-78
2022/03/19 10:30:11;;;;;;;4.50;1.58;;;11.90;57.90;;;;;;5074502;28;20020;-78
2022/03/19 10:32:39;;;;;;;7.95;1.73;;;11.80;55.60;;;;;;5049434;28;20033;-78
2022/03/19 10:35:05;;;;;;;6.90;1.50;;;11.90;55.80;;;;;;5059079;28;20048;-78
2022/03/19 10:37:39;;;;;;;7.05;1.60;;;11.90;56.10;;;;;;5064062;28;20268;-78
2022/03/19 10:40:08;;;;;;;6.40;1.60;;;12.10;55.70;;;;;;5045748;28;20443;-79
2022/03/19 10:42:42;;;;;;;5.20;1.40;;;12.00;55.90;;;;;;5071700;28;20025;-79
2022/03/19 10:45:10;;;;;;;4.32;1.55;;;12.10;55.20;;;;;;5054593;28;20482;-79
2022/03/19 10:47:43;;;;;;;6.53;1.52;;;12.30;55.50;;;;;;5044417;28;20029;-79
2022/03/19 10:50:10;;;;;;;3.00;1.35;;;12.50;54.50;;;;;;5059690;28;20078;-78
2022/03/19 10:52:36;;;;;;;7.15;1.25;;;12.30;52.80;;;;;;5074648;28;20029;-79
2022/03/19 10:55:04;;;;;;;5.28;1.17;;;12.30;52.90;;;;;;5058806;28;20610;-79
2022/03/19 10:57:31;;;;;;;4.30;1.27;;;12.30;53.80;;;;;;5064253;28;20035;-78
2022/03/19 10:59:56;;;;;;;4.50;1.20;;;12.40;52.90;;;;;;5070932;28;20025;-78
2022/03/19 11:02:27;;;;;;;3.45;1.23;;;12.00;52.70;;;;;;5043009;28;20090;-79
2022/03/19 11:04:53;;;;;;;7.15;1.30;;;12.00;52.00;;;;;;5059884;28;20099;-79
2022/03/19 11:07:22;;;;;;;2.67;0.93;;;12.10;52.00;;;;;;5055073;28;20404;-79
2022/03/19 11:09:51;;;;;;;5.35;1.00;;;12.10;52.70;;;;;;5059659;28;20198;-79
2022/03/19 11:12:21;;;;;;;3.25;0.60;;;12.10;51.50;;;;;;5051482;28;20028;-80
2022/03/19 11:14:51;;;;;;;3.78;1.10;;;12.40;52.00;;;;;;5059147;28;21486;-80
2022/03/19 11:17:28;;;;;;;3.10;1.00;;;12.90;51.10;;;;;;5048935;28;20025;-80
2022/03/19 11:20:02;;;;;;;3.60;0.85;;;12.60;48.30;;;;;;5074251;28;20024;-80
2022/03/19 11:22:39;;;;;;;4.15;0.93;;;12.60;50.80;;;;;;5059290;28;20025;-79
2022/03/19 11:25:27;;;;;;;4.18;1.30;;;12.70;50.40;;;;;;5046694;28;20037;-80
2022/03/19 11:27:58;;;;;;;3.15;0.95;;;13.10;49.30;;;;;;5061118;28;20025;-80
2022/03/19 11:30:36;;;;;;;4.55;1.00;;;13.30;48.70;;;;;;5052221;28;20079;-80
2022/03/19 11:33:07;;;;;;;4.35;1.50;;;13.40;48.60;;;;;;5052924;28;20060;-79
2022/03/19 11:35:35;;;;;;;3.47;1.05;;;13.30;48.10;;;;;;5037889;28;20491;-80
2022/03/19 11:38:13;;;;;;;3.33;0.95;;;13.00;46.60;;;;;;5060845;28;20037;-80
2022/03/19 11:40:43;;;;;;;5.20;0.98;;;13.20;48.10;;;;;;5060644;28;20494;-81
2022/03/19 11:43:09;;;;;;;3.38;0.88;;;13.20;48.10;;;;;;5068012;28;20027;-80
2022/03/19 11:46:20;;;;;;;4.53;0.95;;;13.40;47.60;;;;;;5078125;28;20012;-80
2022/03/19 11:48:52;;;;;;;5.07;1.10;;;13.70;47.50;;;;;;5062714;28;20454;-80
2022/03/19 11:51:33;;;;;;;2.50;0.90;;;14.00;47.10;;;;;;5062035;28;20187;-80
2022/03/19 11:54:19;;;;;;;3.05;1.05;;;13.70;46.20;;;;;;5057983;28;20043;-80
2022/03/19 11:56:44;;;;;;;2.30;0.82;;;13.70;46.50;;;;;;5041347;28;20151;-80
2022/03/19 11:59:16;;;;;;;1.52;0.60;;;13.80;46.80;;;;;;5070817;28;20044;-80
2022/03/19 12:01:58;;;;;;;3.92;0.80;;;14.00;45.70;;;;;;5053805;28;20521;-80
2022/03/19 12:04:24;;;;;;;3.40;1.00;;;14.30;44.50;;;;;;5053636;28;20532;-80
2022/03/19 12:06:58;;;;;;;3.08;1.00;;;14.00;45.10;;;;;;5066274;28;20403;-80
2022/03/19 12:09:52;;;;;;;4.20;0.85;;;14.00;44.30;;;;;;5054323;28;20530;-80
2022/03/19 12:12:23;;;;;;;2.90;0.85;;;14.90;45.50;;;;;;5049036;28;20076;-81
2022/03/19 12:14:49;;;;;;;;;;;14.60;44.30;;;;;;5045583;28;20028;-81
2022/03/19 12:17:15;;;;;;;1.70;0.80;;;15.20;45.20;;;;;;5039070;28;20396;-81
2022/03/19 12:19:47;;;;;;;2.85;1.00;;;15.80;43.00;;;;;;5051620;28;20416;-81
2022/03/19 12:22:29;;;;;;;3.20;0.98;;;15.60;43.70;;;;;;5056541;28;20092;-81
2022/03/19 12:25:14;;;;;;;3.00;0.80;;;16.10;41.00;;;;;;5050808;28;20505;-81
2022/03/19 12:27:41;;;;;;;4.03;0.90;;;16.00;39.90;;;;;;5049867;28;20071;-80
2022/03/19 12:30:08;;;;;;;3.03;0.90;;;16.10;41.70;;;;;;5054232;28;20032;-81
2022/03/19 12:32:49;;;;;;;2.97;1.08;;;15.50;41.70;;;;;;5055294;28;20035;-81
2022/03/19 12:35:17;;;;;;;3.08;0.75;;;15.70;41.70;;;;;;5053546;28;20052;-81
2022/03/19 12:37:47;;;;;;;4.00;1.00;;;14.80;43.00;;;;;;5054085;28;20519;-81
2022/03/19 12:40:18;;;;;;;3.28;0.88;;;14.30;43.90;;;;;;5068978;28;20025;-81
2022/03/19 12:42:50;;;;;;;3.35;0.90;;;14.60;42.80;;;;;;5046960;28;20033;-81
2022/03/19 12:45:15;;;;;;;3.97;1.00;;;14.60;43.80;;;;;;5073928;28;20025;-81
2022/03/19 12:47:41;;;;;;;3.05;0.80;;;15.30;42.80;;;;;;5052477;28;20035;-80
2022/03/19 12:50:07;;;;;;;4.32;0.93;;;15.50;41.50;;;;;;5054177;28;20025;-80
2022/03/19 12:52:33;;;;;;;2.45;1.00;;;14.80;41.60;;;;;;5045722;28;20033;-80
2022/03/19 12:55:00;;;;;;;2.45;0.80;;;14.90;40.80;;;;;;5049672;28;20333;-81
2022/03/19 12:57:30;;;;;;;3.10;0.68;;;14.70;42.50;;;;;;5034199;28;20025;-80